createdAt,value
2019-04-21T00:01:09.196Z,8.57
2019-04-21T00:03:50.127Z,8.93
2019-04-21T00:06:37.017Z,8.47
2019-04-21T00:09:21.043Z,8.33
2019-04-21T00:11:53.774Z,8.87
2019-04-21T00:14:08.967Z,7.87
2019-04-21T00:16:40.969Z,8.63
2019-04-21T00:19:14.485Z,9.10
2019-04-21T00:21:45.759Z,8.80
2019-04-21T00:24:25.019Z,9.17
2019-04-21T00:27:06.995Z,9.17
2019-04-21T00:32:08.717Z,9.90
2019-04-21T00:34:28.110Z,9.60
2019-04-21T00:37:09.452Z,9.00
2019-04-21T00:42:25.756Z,9.23
2019-04-21T00:44:51.973Z,9.63
2019-04-21T00:47:31.754Z,9.83
2019-04-21T00:50:02.253Z,9.33
2019-04-21T00:55:45.567Z,9.50
2019-04-21T00:58:18.435Z,9.93
2019-04-21T01:00:49.584Z,9.37
2019-04-21T01:03:20.616Z,9.20
2019-04-21T01:05:51.650Z,9.60
2019-04-21T01:08:21.740Z,9.73
2019-04-21T01:10:45.870Z,9.80
2019-04-21T01:13:45.619Z,10.13
2019-04-21T01:15:59.201Z,9.13
2019-04-21T01:18:32.656Z,9.53
2019-04-21T01:20:42.789Z,9.87
2019-04-21T01:23:19.225Z,10.63
2019-04-21T01:26:06.827Z,10.00
2019-04-21T01:28:39.925Z,10.20
2019-04-21T01:31:17.445Z,9.30
2019-04-21T01:33:57.493Z,10.10
2019-04-21T01:36:24.562Z,9.60
2019-04-21T01:39:08.412Z,9.87
2019-04-21T01:41:42.874Z,9.70
2019-04-21T01:44:14.898Z,9.73
2019-04-21T01:46:40.771Z,10.70
2019-04-21T01:49:11.486Z,10.23
2019-04-21T01:52:03.266Z,10.40
2019-04-21T01:54:52.248Z,10.00
2019-04-21T01:57:23.042Z,10.23
2019-04-21T01:59:56.520Z,10.87
2019-04-21T02:02:52.470Z,10.27
2019-04-21T02:05:18.828Z,10.77
2019-04-21T02:07:44.762Z,11.70
2019-04-21T02:10:17.953Z,11.07
2019-04-21T02:12:51.313Z,10.63
2019-04-21T02:15:31.271Z,11.13
2019-04-21T02:17:59.480Z,11.43
2019-04-21T02:20:22.991Z,10.80
2019-04-21T02:23:26.368Z,10.73
2019-04-21T02:25:44.690Z,10.90
2019-04-21T02:28:24.481Z,10.67
2019-04-21T02:31:05.893Z,11.30
2019-04-21T02:36:18.513Z,10.67
2019-04-21T02:38:39.164Z,11.20
2019-04-21T02:41:22.968Z,11.40
2019-04-21T02:43:46.518Z,10.83
2019-04-21T02:48:56.163Z,11.47
2019-04-21T02:51:28.021Z,11.10
2019-04-21T02:54:31.821Z,11.80
2019-04-21T02:56:35.794Z,10.97
2019-04-21T02:59:05.297Z,12.33
2019-04-21T03:01:50.415Z,10.97
2019-04-21T03:04:44.090Z,11.00
2019-04-21T03:09:49.529Z,10.77
2019-04-21T03:12:22.718Z,12.00
2019-04-21T03:17:43.908Z,11.33
2019-04-21T03:22:25.031Z,9.63
2019-04-21T03:38:05.768Z,11.20
2019-04-21T03:40:22.211Z,12.13
2019-04-21T03:43:01.940Z,11.00
2019-04-21T03:48:05.157Z,11.77
2019-04-21T03:50:41.084Z,11.50
2019-04-21T03:53:16.807Z,11.70
2019-04-21T03:58:23.927Z,11.87
2019-04-21T04:09:37.214Z,11.10
2019-04-21T04:12:05.147Z,11.40
2019-04-21T04:14:46.190Z,10.67
2019-04-21T04:19:44.572Z,11.07
2019-04-21T04:24:49.878Z,11.30
2019-04-21T04:27:36.903Z,11.37
2019-04-21T04:29:57.209Z,11.47
2019-04-21T04:32:23.530Z,10.57
2019-04-21T04:35:10.870Z,10.70
2019-04-21T04:37:32.203Z,11.03
2019-04-21T04:40:10.500Z,11.50
2019-04-21T04:42:47.857Z,10.83
2019-04-21T04:45:23.773Z,11.70
2019-04-21T04:47:44.921Z,11.47
2019-04-21T04:50:17.779Z,10.50
2019-04-21T04:55:22.056Z,11.93
2019-04-21T04:58:04.909Z,12.43
2019-04-21T05:05:36.290Z,11.27
2019-04-21T05:07:57.591Z,11.80
2019-04-21T05:10:38.526Z,12.30
2019-04-21T05:13:02.295Z,11.70
2019-04-21T05:18:02.915Z,11.13
2019-04-21T05:20:23.677Z,11.43
2019-04-21T05:23:06.272Z,12.00
2019-04-21T05:25:27.760Z,11.97
2019-04-21T05:28:02.590Z,12.93
2019-04-21T05:30:50.901Z,11.83
2019-04-21T05:33:39.914Z,12.73
2019-04-21T05:36:11.456Z,12.00
2019-04-21T05:38:55.516Z,12.03
2019-04-21T05:41:22.782Z,11.30
2019-04-21T05:43:56.513Z,11.67
2019-04-21T05:46:34.396Z,11.57
2019-04-21T05:49:06.806Z,11.40
2019-04-21T05:51:35.552Z,11.50
2019-04-21T05:54:23.056Z,11.77
2019-04-21T05:56:40.713Z,11.67
2019-04-21T05:59:13.517Z,11.83
2019-04-21T06:01:47.070Z,11.67
2019-04-21T06:04:34.100Z,10.63
2019-04-21T06:07:04.403Z,11.80
2019-04-21T06:09:35.215Z,12.23
2019-04-21T06:12:04.363Z,11.37
2019-04-21T06:14:45.994Z,11.83
2019-04-21T06:17:19.807Z,11.30
2019-04-21T06:22:14.873Z,12.07
2019-04-21T06:25:16.202Z,12.27
2019-04-21T06:27:22.932Z,11.30
2019-04-21T06:29:49.155Z,11.50
2019-04-21T06:32:36.066Z,11.07
2019-04-21T06:40:16.449Z,11.63
2019-04-21T06:42:34.087Z,11.70
2019-04-21T06:45:14.045Z,10.77
2019-04-21T06:47:47.238Z,11.23
2019-04-21T06:50:12.174Z,11.37
2019-04-21T06:52:52.159Z,11.00
2019-04-21T06:55:13.823Z,11.43
2019-04-21T06:57:45.715Z,10.97
2019-04-21T07:00:15.134Z,10.30
2019-04-21T07:05:15.380Z,10.73
2019-04-21T07:08:06.470Z,10.77
2019-04-21T07:10:17.214Z,9.93
2019-04-21T07:12:44.962Z,11.07
2019-04-21T07:15:17.009Z,10.43
2019-04-21T07:17:49.917Z,10.53
2019-04-21T07:20:21.821Z,10.60
2019-04-21T07:22:56.855Z,10.00
2019-04-21T07:25:32.659Z,9.90
2019-04-21T07:27:59.353Z,10.30
2019-04-21T07:33:19.329Z,9.63
2019-04-21T07:35:43.144Z,9.73
2019-04-21T07:38:16.707Z,10.47
2019-04-21T07:40:36.419Z,9.67
2019-04-21T07:43:05.720Z,9.60
2019-04-21T07:45:38.113Z,9.90
2019-04-21T07:48:19.078Z,9.43
2019-04-21T07:51:02.281Z,9.60
2019-04-21T07:53:55.747Z,9.50
2019-04-21T07:55:46.918Z,9.97
2019-04-21T07:58:36.415Z,9.47
2019-04-21T08:01:12.056Z,9.83
2019-04-21T08:03:43.920Z,9.20
2019-04-21T08:06:32.004Z,9.70
2019-04-21T08:08:42.165Z,9.10
2019-04-21T08:11:11.001Z,9.23
2019-04-21T08:16:20.400Z,10.27
2019-04-21T08:18:47.437Z,9.50
2019-04-21T08:21:11.127Z,9.40
2019-04-21T08:23:41.495Z,9.80
2019-04-21T08:26:16.611Z,9.23
2019-04-21T08:28:52.094Z,10.10
2019-04-21T08:31:25.788Z,9.37
2019-04-21T08:33:55.992Z,9.97
2019-04-21T08:38:59.853Z,9.20
2019-04-21T08:41:23.658Z,9.33
2019-04-21T08:43:58.484Z,9.43
2019-04-21T08:46:35.107Z,9.57
2019-04-21T08:49:00.845Z,9.70
2019-04-21T08:51:33.507Z,10.30
2019-04-21T08:54:09.207Z,9.60
2019-04-21T08:56:55.859Z,9.47
2019-04-21T08:59:47.155Z,9.10
2019-04-21T09:02:29.839Z,9.83
2019-04-21T09:05:00.209Z,10.63
2019-04-21T09:07:32.172Z,8.90
2019-04-21T09:09:57.850Z,10.00
2019-04-21T09:12:32.755Z,8.87
2019-04-21T09:15:01.249Z,9.53
2019-04-21T09:17:31.560Z,9.00
2019-04-21T09:20:13.050Z,9.93
2019-04-21T09:22:41.219Z,8.83
2019-04-21T09:25:19.374Z,9.47
2019-04-21T09:27:42.556Z,9.47
2019-04-21T09:30:03.474Z,9.60
2019-04-21T09:32:33.072Z,8.60
2019-04-21T09:35:05.680Z,8.10
2019-04-21T09:37:46.466Z,8.50
2019-04-21T09:40:06.775Z,7.77
2019-04-21T09:42:44.339Z,7.47
2019-04-21T09:45:10.028Z,7.40
2019-04-21T09:47:47.019Z,7.67
2019-04-21T09:50:10.301Z,7.43
2019-04-21T09:52:48.842Z,7.77
2019-04-21T09:55:17.508Z,7.60
2019-04-21T09:57:50.289Z,7.80
2019-04-21T10:00:22.389Z,7.50
2019-04-21T10:03:00.571Z,7.67
2019-04-21T10:05:23.495Z,7.87
2019-04-21T10:07:55.319Z,7.33
2019-04-21T10:10:27.513Z,7.37
2019-04-21T10:12:57.754Z,7.47
2019-04-21T10:15:28.286Z,7.73
2019-04-21T10:18:04.661Z,6.80
2019-04-21T10:20:36.357Z,7.47
2019-04-21T10:23:07.079Z,7.43
2019-04-21T10:25:41.033Z,7.63
2019-04-21T10:28:10.930Z,7.60
2019-04-21T10:30:42.668Z,7.00
2019-04-21T10:33:16.668Z,7.20
2019-04-21T10:35:46.746Z,7.43
2019-04-21T10:38:30.395Z,6.67
2019-04-21T10:40:55.133Z,7.23
2019-04-21T10:43:29.176Z,7.27
2019-04-21T10:46:01.253Z,6.93
2019-04-21T10:48:34.555Z,7.30
2019-04-21T10:51:03.691Z,6.57
2019-04-21T10:53:36.702Z,7.10
2019-04-21T10:56:16.977Z,6.80
2019-04-21T10:58:40.896Z,7.40
2019-04-21T11:01:16.795Z,7.17
2019-04-21T11:04:19.989Z,7.33
2019-04-21T11:06:39.208Z,7.37
2019-04-21T11:09:15.860Z,6.53
2019-04-21T11:11:49.561Z,6.43
2019-04-21T11:14:17.788Z,6.47
2019-04-21T11:16:49.072Z,6.80
2019-04-21T11:19:20.048Z,6.07
2019-04-21T11:21:52.562Z,6.43
2019-04-21T11:24:23.046Z,6.33
2019-04-21T11:26:53.799Z,6.50
2019-04-21T11:29:23.400Z,6.23
2019-04-21T11:31:54.831Z,5.83
2019-04-21T11:34:25.139Z,5.83
2019-04-21T11:36:56.349Z,5.87
2019-04-21T11:39:37.549Z,5.47
2019-04-21T11:41:59.624Z,5.53
2019-04-21T11:44:31.037Z,5.67
2019-04-21T11:47:00.631Z,5.97
2019-04-21T11:49:36.968Z,5.63
2019-04-21T11:52:11.607Z,5.43
2019-04-21T11:54:46.742Z,5.37
2019-04-21T11:57:22.740Z,5.80
2019-04-21T11:59:49.192Z,6.00
2019-04-21T12:02:19.435Z,5.60
2019-04-21T12:04:49.561Z,5.60
2019-04-21T12:07:19.690Z,5.37
2019-04-21T12:09:51.342Z,5.50
2019-04-21T12:12:25.428Z,5.33
2019-04-21T12:14:55.012Z,6.00
2019-04-21T12:17:25.923Z,5.57
2019-04-21T12:19:55.223Z,5.83
2019-04-21T12:22:28.906Z,5.33
2019-04-21T12:24:55.871Z,5.60
2019-04-21T12:27:25.668Z,5.37
2019-04-21T12:29:55.523Z,5.60
2019-04-21T12:32:38.054Z,5.47
2019-04-21T12:35:10.065Z,5.87
2019-04-21T12:37:40.643Z,5.50
2019-04-21T12:40:14.416Z,5.90
2019-04-21T12:42:45.406Z,5.33
2019-04-21T12:45:15.724Z,4.90
2019-04-21T12:47:48.311Z,5.57
2019-04-21T12:50:17.054Z,5.70
2019-04-21T12:52:47.355Z,5.50
2019-04-21T12:55:23.944Z,5.53
2019-04-21T12:57:53.171Z,5.78
2019-04-21T13:00:23.076Z,5.42
2019-04-21T13:02:52.325Z,4.85
2019-04-21T13:05:27.544Z,5.17
2019-04-21T13:07:59.552Z,5.70
2019-04-21T13:10:30.582Z,5.15
2019-04-21T13:13:01.787Z,5.53
2019-04-21T13:15:33.542Z,5.28
2019-04-21T13:18:02.852Z,5.97
2019-04-21T13:20:32.344Z,5.50
2019-04-21T13:23:01.906Z,5.17
2019-04-21T13:25:31.773Z,5.30
2019-04-21T13:28:01.000Z,4.75
2019-04-21T13:30:30.626Z,5.12
2019-04-21T13:33:00.840Z,5.10
2019-04-21T13:35:30.990Z,4.87
2019-04-21T13:38:00.689Z,4.80
2019-04-21T13:41:14.994Z,4.75
2019-04-21T13:43:30.777Z,4.90
2019-04-21T13:45:59.934Z,5.20
2019-04-21T13:48:30.592Z,5.15
2019-04-21T13:50:59.825Z,5.30
2019-04-21T13:53:29.275Z,5.10
2019-04-21T13:55:58.597Z,5.50
2019-04-21T13:58:28.598Z,5.05
2019-04-21T14:00:59.948Z,5.20
2019-04-21T14:03:31.024Z,5.35
2019-04-21T14:06:02.603Z,4.95
2019-04-21T14:08:33.512Z,4.97
2019-04-21T14:11:03.348Z,5.40
2019-04-21T14:13:34.165Z,4.50
2019-04-21T14:16:04.130Z,5.05
2019-04-21T14:18:36.491Z,4.60
2019-04-21T14:21:07.224Z,5.20
2019-04-21T14:23:43.386Z,5.45
2019-04-21T14:26:09.389Z,5.15
2019-04-21T14:28:38.917Z,5.03
2019-04-21T14:31:10.492Z,5.05
2019-04-21T14:33:45.933Z,4.92
2019-04-21T14:36:16.789Z,5.17
2019-04-21T14:38:46.934Z,5.10
2019-04-21T14:41:18.177Z,5.00
2019-04-21T14:43:55.110Z,4.55
2019-04-21T14:46:37.499Z,4.35
2019-04-21T14:49:37.524Z,4.83
2019-04-21T14:52:25.269Z,5.00
2019-04-21T14:55:19.009Z,4.87
2019-04-21T14:57:53.179Z,4.67
2019-04-21T15:00:29.108Z,4.70
2019-04-21T15:03:01.722Z,4.87
2019-04-21T15:05:33.485Z,4.90
2019-04-21T15:08:04.907Z,4.92
2019-04-21T15:10:35.206Z,4.90
2019-04-21T15:13:05.774Z,5.00
2019-04-21T15:15:38.039Z,4.75
2019-04-21T15:18:14.595Z,5.30
2019-04-21T15:20:45.720Z,5.03
2019-04-21T15:23:15.250Z,5.35
2019-04-21T15:25:46.011Z,4.90
2019-04-21T15:28:16.075Z,4.97
2019-04-21T15:30:47.113Z,4.33
2019-04-21T15:33:18.161Z,4.70
2019-04-21T15:35:49.088Z,4.60
2019-04-21T15:38:22.203Z,4.78
2019-04-21T15:40:57.215Z,3.98
2019-04-21T15:43:26.594Z,4.17
2019-04-21T15:45:58.280Z,4.47
2019-04-21T15:48:30.927Z,4.37
2019-04-21T15:51:05.664Z,4.53
2019-04-21T15:53:37.394Z,5.00
2019-04-21T15:56:15.219Z,4.80
2019-04-21T15:59:02.629Z,4.45
2019-04-21T16:01:46.417Z,4.97
2019-04-21T16:04:16.830Z,4.28
2019-04-21T16:06:47.829Z,4.00
2019-04-21T16:09:21.619Z,4.35
2019-04-21T16:11:49.713Z,4.55
2019-04-21T16:14:20.591Z,3.90
2019-04-21T16:16:51.857Z,4.50
2019-04-21T16:19:29.161Z,4.35
2019-04-21T16:22:01.003Z,4.62
2019-04-21T16:24:30.931Z,4.25
2019-04-21T16:27:04.941Z,4.67
2019-04-21T16:29:34.158Z,4.12
2019-04-21T16:32:09.111Z,4.17
2019-04-21T16:34:48.372Z,3.70
2019-04-21T16:37:10.130Z,3.80
2019-04-21T16:39:41.283Z,3.83
2019-04-21T16:42:12.493Z,3.77
2019-04-21T16:44:45.011Z,3.80
2019-04-21T16:47:14.213Z,3.75
2019-04-21T16:49:45.518Z,3.90
2019-04-21T16:52:23.761Z,3.70
2019-04-21T16:55:00.237Z,4.05
2019-04-21T16:57:59.478Z,3.92
2019-04-21T17:00:31.700Z,3.70
2019-04-21T17:02:58.795Z,3.75
2019-04-21T17:05:28.220Z,4.15
2019-04-21T17:07:57.973Z,3.95
2019-04-21T17:10:28.781Z,3.27
2019-04-21T17:12:59.905Z,3.80
2019-04-21T17:15:48.751Z,3.70
2019-04-21T17:18:20.774Z,3.87
2019-04-21T17:20:42.937Z,3.80
2019-04-21T17:23:05.369Z,3.47
2019-04-21T17:25:35.034Z,3.52
2019-04-21T17:28:05.940Z,3.60
2019-04-21T17:30:36.464Z,3.10
2019-04-21T17:33:11.250Z,3.52
2019-04-21T17:35:40.751Z,3.58
2019-04-21T17:38:14.070Z,3.92
2019-04-21T17:40:49.565Z,3.58
2019-04-21T17:43:20.250Z,3.55
2019-04-21T17:45:53.126Z,3.67
2019-04-21T17:48:27.272Z,3.95
2019-04-21T17:51:09.537Z,3.70
2019-04-21T17:53:51.958Z,3.80
2019-04-21T17:56:55.178Z,3.40
2019-04-21T17:59:23.664Z,3.90
2019-04-21T18:01:51.658Z,3.87
2019-04-21T18:04:27.933Z,3.95
2019-04-21T18:07:27.434Z,3.80
2019-04-21T18:12:36.224Z,3.80
2019-04-21T18:15:38.328Z,3.90
2019-04-21T18:18:08.477Z,3.73
2019-04-21T18:20:44.004Z,3.90
2019-04-21T18:23:50.517Z,4.27
2019-04-21T18:26:29.707Z,3.93
2019-04-21T18:28:47.024Z,4.07
2019-04-21T18:31:19.025Z,4.13
2019-04-21T18:34:17.431Z,4.40
2019-04-21T18:36:51.605Z,4.33
2019-04-21T18:39:39.256Z,4.17
2019-04-21T18:42:21.367Z,4.07
2019-04-21T18:45:34.430Z,4.17
2019-04-21T18:47:59.502Z,4.03
2019-04-21T18:51:00.508Z,4.30
2019-04-21T18:53:58.085Z,4.13
2019-04-21T18:56:20.615Z,4.93
2019-04-21T18:58:50.909Z,4.50
2019-04-21T19:01:27.525Z,4.70
2019-04-21T19:03:55.910Z,5.43
2019-04-21T19:06:42.440Z,4.83
2019-04-21T19:09:11.558Z,4.63
2019-04-21T19:11:42.554Z,5.00
2019-04-21T19:17:13.868Z,4.83
2019-04-21T19:19:39.361Z,5.03
2019-04-21T19:22:00.662Z,4.90
2019-04-21T19:27:06.217Z,5.00
2019-04-21T19:32:01.698Z,5.60
2019-04-21T19:34:23.729Z,5.70
2019-04-21T19:36:55.046Z,5.80
2019-04-21T19:39:36.187Z,5.93
2019-04-21T19:42:07.194Z,5.70
2019-04-21T19:44:45.443Z,6.13
2019-04-21T19:47:17.222Z,6.23
2019-04-21T19:49:49.520Z,6.23
2019-04-21T19:52:06.596Z,6.23
2019-04-21T19:54:39.717Z,6.20
2019-04-21T19:57:07.109Z,6.27
2019-04-21T19:59:44.672Z,6.07
2019-04-21T20:02:09.023Z,6.27
2019-04-21T20:04:48.433Z,7.10
2019-04-21T20:07:26.319Z,6.53
2019-04-21T20:10:03.424Z,6.47
2019-04-21T20:12:36.608Z,6.47
2019-04-21T20:15:10.824Z,6.03
2019-04-21T20:17:40.800Z,6.27
2019-04-21T20:19:49.978Z,6.87
2019-04-21T20:22:23.965Z,6.77
2019-04-21T20:24:58.615Z,6.10
2019-04-21T20:27:36.226Z,7.03
2019-04-21T20:30:16.048Z,6.40
2019-04-21T20:32:52.200Z,6.37
2019-04-21T20:35:26.660Z,7.13
2019-04-21T20:37:51.131Z,6.97
2019-04-21T20:40:23.274Z,6.47
2019-04-21T20:42:52.631Z,6.83
2019-04-21T20:47:48.011Z,7.47
2019-04-21T20:50:28.648Z,7.83
2019-04-21T20:53:07.226Z,7.57
2019-04-21T20:55:26.517Z,7.37
2019-04-21T20:57:56.547Z,7.50
2019-04-21T21:00:54.477Z,7.43
2019-04-21T21:03:13.558Z,7.67
2019-04-21T21:05:39.895Z,7.80
2019-04-21T21:08:20.017Z,7.50
2019-04-21T21:10:44.261Z,7.70
2019-04-21T21:13:28.389Z,8.00
2019-04-21T21:15:52.609Z,7.27
2019-04-21T21:18:38.469Z,8.07
2019-04-21T21:20:56.032Z,8.40
2019-04-21T21:23:14.442Z,8.03
2019-04-21T21:25:58.481Z,7.83
2019-04-21T21:28:22.710Z,8.30
2019-04-21T21:30:52.751Z,8.30
2019-04-21T21:33:25.710Z,8.03
2019-04-21T21:36:06.543Z,8.10
2019-04-21T21:38:40.889Z,8.13
2019-04-21T21:41:03.248Z,7.97
2019-04-21T21:43:30.968Z,8.27
2019-04-21T21:46:06.283Z,7.80
2019-04-21T21:48:50.070Z,7.50
2019-04-21T21:51:22.885Z,8.30
2019-04-21T21:53:45.826Z,8.23
2019-04-21T21:56:16.471Z,7.80
2019-04-21T21:58:48.139Z,7.77
2019-04-21T22:01:21.674Z,7.50
2019-04-21T22:04:04.857Z,7.77
2019-04-21T22:06:40.133Z,7.70
2019-04-21T22:09:06.150Z,7.37
2019-04-21T22:11:36.134Z,8.00
2019-04-21T22:14:17.075Z,8.23
2019-04-21T22:16:59.437Z,7.90
2019-04-21T22:19:33.984Z,7.77
2019-04-21T22:22:04.165Z,7.57
2019-04-21T22:24:35.138Z,7.53
2019-04-21T22:26:52.680Z,7.80
2019-04-21T22:29:23.411Z,7.30
2019-04-21T22:32:05.534Z,7.30
2019-04-21T22:34:30.267Z,7.77
2019-04-21T22:37:07.231Z,7.67
2019-04-21T22:39:44.918Z,7.43
2019-04-21T22:42:05.839Z,6.90
2019-04-21T22:44:32.246Z,7.47
2019-04-21T22:47:11.239Z,7.53
2019-04-21T22:49:32.610Z,7.83
2019-04-21T22:52:10.373Z,7.53
2019-04-21T22:54:37.982Z,7.60
2019-04-21T22:57:12.064Z,7.57
2019-04-21T22:59:37.343Z,6.83
2019-04-21T23:02:16.307Z,7.20
2019-04-21T23:04:48.858Z,7.50
2019-04-21T23:07:17.682Z,6.97
2019-04-21T23:09:49.504Z,7.37
2019-04-21T23:12:28.249Z,7.27
2019-04-21T23:15:01.854Z,7.00
2019-04-21T23:17:45.866Z,7.10
2019-04-21T23:20:19.913Z,6.77
2019-04-21T23:23:00.729Z,7.30
2019-04-21T23:25:25.299Z,7.53
2019-04-21T23:27:56.295Z,7.10
2019-04-21T23:30:37.658Z,6.87
2019-04-21T23:32:53.624Z,7.20
2019-04-21T23:35:21.838Z,6.83
2019-04-21T23:38:00.936Z,7.30
2019-04-21T23:40:27.838Z,7.03
2019-04-21T23:43:00.112Z,7.67
2019-04-21T23:45:36.188Z,7.33
2019-04-21T23:48:19.705Z,7.03
2019-04-21T23:50:45.016Z,6.70
2019-04-21T23:53:08.894Z,7.40
2019-04-21T23:55:39.068Z,6.77
2019-04-21T23:58:16.374Z,6.80
